Aérodrome :
LOGIN :

S'inscrire | Disclaimer

   EN    FR    IT 

 










Légende :    VFR   VFR Marginal   IFR   IFR Intensif   IFR Très Intensif
Visi : 
Plafond : 
>= 8 km
>= 3000ft
5 à 8 km
1000 à 3000 ft
1500m à 5 km
500 à 1000 ft
800 à 1500m
200 à 500 ft
< 800m
< 200 ft
Symboles :   Orages  Brouillard  Fortes neiges  Fortes précipitations  Vent > 20 kt
SIGMETs :   Divers  Orages  Givrage  Turbulence  Onde Orograph.  Cendres Volcan.






- Altitude de l'aérodrome : 290 ft
- Code IATA : ACI


EGJA - Alderney

DERNIER METAR :
  • 291650Z 23012KT 9999 FEW018 09/07 Q1014

METARs EXPIRÉS :
  • 291620Z 23013KT 9999 FEW018 09/07 Q1014
  • 291550Z 24015KT 9999 FEW018 09/06 Q1014
  • 291520Z 23013KT 9999 FEW018 10/06 Q1014
  • 291450Z 26009KT 9999 FEW018 09/06 Q1014
  • 291420Z 26013KT 9999 FEW019 10/06 Q1014

TAF TAF EGJA
Valide du 29 à 15h jusqu'au 30 à 00h UTC


291356Z 2915/3000 25012KT 9999 FEW016
BECMG 2921/2923 19011KT



MET'MAP, la Météo Aéronautique d'un coup d'oeil ! - Copyright ORBIFLY Décembre 2007 - Disclaimer

ORBIFLY MET'MAP TEAM :

Programmation & Développement : Alexandra Zaïnal
Sur une idée originale de : Baudouin d'Aumeries
Assistance à la programmation : Marc-Olivier Méhu
Soutien technique & logistique : Manuel Goepfert

Contact : metmap@orbifly.com




SOURCES & CREDITS :

   NOAA